Del Valle, Texas
Current Conditions -  °F | °C
As of 10:25 PM on Saturday 22 Nov 2014 (Local Time) from KAUS Reporting Station
Moderate Rain Moderate Rain  
Wind Chill: 61°   Ceiling: 6500
Heat Index: 61°   Visibility: 8mi
Dew Point: 60°   Wind: 5mph
Humidity: 97%   Direction: 350°N
Pressure: 29.74"   Gusts: NA
Location:  30.21°N, 97.66°W
Report Text: KAUS 230425Z 35004KT 8SM RA SCT046 BKN065 OVC085 16/16 A2974 RMK AO2 TSE24 PRESFR OCNL LTG DSNT E-SE P0017 T01610156 $
Loading
Personal Weather Stations






























Interactive Weather Map New forecast layout! Learn more

10-Day Weather Forecast

Advertisements
Track Severe Weather on mobile